KLRO/LRO METAR and TAF weather

Enter ICAO airport designator
Station Type Date Time Source
KLRO METAR 2020/12/05 05:55 UTC NOAA

KLRO 050555Z AUTO 22011KT 10SM BKN015 OVC021 18/17 A2988 RMK AO2


Station Type Date Time Source
KLRO Decoded METAR 2020/12/05 05:55 UTC NOAA

Station name not available
Dec 05, 2020 - 12:55 AM EST / 2020.12.05 0555 UTC
Wind: from the SW (220 degrees) at 13 MPH (11 KT):0
Visibility: 10 mile(s):0
Sky conditions: overcast
Temperature: 64 F (18 C)
Dew Point: 62 F (17 C)
Relative Humidity: 93%
Pressure (altimeter): 29.88 in. Hg (1011 hPa)
ob: KLRO 050555Z AUTO 22011KT 10SM BKN015 OVC021 18/17 A2988 RMK AO2
cycle: 6

Station Type Date Time Source
KLRO TAF UTC NOAA

Error!

Example: see airport list